sensor_id;sensor_type;location;lat;lon;timestamp;P1;durP1;ratioP1;P2;durP2;ratioP2
66270;SDS011;53063;39.614;8.814;2023-06-14T00:01:52;2.97;;;1.60;;
66270;SDS011;53063;39.614;8.814;2023-06-14T00:04:18;3.33;;;1.50;;
66270;SDS011;53063;39.614;8.814;2023-06-14T00:06:46;3.83;;;2.00;;
66270;SDS011;53063;39.614;8.814;2023-06-14T00:09:12;3.40;;;1.50;;
66270;SDS011;53063;39.614;8.814;2023-06-14T00:11:39;3.25;;;1.55;;
66270;SDS011;53063;39.614;8.814;2023-06-14T00:14:05;5.03;;;1.73;;
66270;SDS011;53063;39.614;8.814;2023-06-14T00:16:31;4.25;;;1.80;;
66270;SDS011;53063;39.614;8.814;2023-06-14T00:19:01;3.13;;;1.88;;
66270;SDS011;53063;39.614;8.814;2023-06-14T00:21:30;3.65;;;1.58;;
66270;SDS011;53063;39.614;8.814;2023-06-14T00:23:59;2.85;;;1.50;;
66270;SDS011;53063;39.614;8.814;2023-06-14T00:26:26;3.17;;;1.58;;
66270;SDS011;53063;39.614;8.814;2023-06-14T00:28:53;4.57;;;1.80;;
66270;SDS011;53063;39.614;8.814;2023-06-14T00:31:19;3.50;;;1.48;;
66270;SDS011;53063;39.614;8.814;2023-06-14T00:33:46;4.03;;;1.33;;
66270;SDS011;53063;39.614;8.814;2023-06-14T00:36:11;3.42;;;1.90;;
66270;SDS011;53063;39.614;8.814;2023-06-14T00:38:37;4.95;;;2.08;;
66270;SDS011;53063;39.614;8.814;2023-06-14T00:41:03;8.50;;;2.50;;
66270;SDS011;53063;39.614;8.814;2023-06-14T00:43:29;5.63;;;1.92;;
66270;SDS011;53063;39.614;8.814;2023-06-14T00:45:55;3.88;;;2.00;;
66270;SDS011;53063;39.614;8.814;2023-06-14T00:48:21;5.68;;;2.25;;
66270;SDS011;53063;39.614;8.814;2023-06-14T00:50:49;5.28;;;2.28;;
66270;SDS011;53063;39.614;8.814;2023-06-14T00:53:16;5.45;;;2.25;;
66270;SDS011;53063;39.614;8.814;2023-06-14T00:55:44;6.60;;;2.10;;
66270;SDS011;53063;39.614;8.814;2023-06-14T00:58:10;6.68;;;3.20;;
66270;SDS011;53063;39.614;8.814;2023-06-14T01:00:36;7.15;;;2.58;;
66270;SDS011;53063;39.614;8.814;2023-06-14T01:03:02;4.70;;;1.90;;
66270;SDS011;53063;39.614;8.814;2023-06-14T01:05:29;6.13;;;2.20;;
66270;SDS011;53063;39.614;8.814;2023-06-14T01:11:05;7.40;;;2.50;;
66270;SDS011;53063;39.614;8.814;2023-06-14T01:13:39;4.95;;;1.90;;
66270;SDS011;53063;39.614;8.814;2023-06-14T01:16:10;3.85;;;1.70;;
66270;SDS011;53063;39.614;8.814;2023-06-14T01:18:37;3.42;;;1.88;;
66270;SDS011;53063;39.614;8.814;2023-06-14T01:21:04;3.88;;;2.05;;
66270;SDS011;53063;39.614;8.814;2023-06-14T01:23:30;5.30;;;1.77;;
66270;SDS011;53063;39.614;8.814;2023-06-14T01:26:00;4.47;;;1.80;;
66270;SDS011;53063;39.614;8.814;2023-06-14T01:28:30;4.00;;;1.95;;
66270;SDS011;53063;39.614;8.814;2023-06-14T01:30:59;8.15;;;2.80;;
66270;SDS011;53063;39.614;8.814;2023-06-14T01:33:29;5.85;;;2.00;;
66270;SDS011;53063;39.614;8.814;2023-06-14T01:35:58;3.90;;;2.10;;
66270;SDS011;53063;39.614;8.814;2023-06-14T01:38:29;7.57;;;1.92;;
66270;SDS011;53063;39.614;8.814;2023-06-14T01:40:57;4.82;;;2.13;;
66270;SDS011;53063;39.614;8.814;2023-06-14T01:43:25;5.82;;;2.22;;
66270;SDS011;53063;39.614;8.814;2023-06-14T01:45:52;3.55;;;1.83;;
66270;SDS011;53063;39.614;8.814;2023-06-14T01:48:20;4.15;;;2.15;;
66270;SDS011;53063;39.614;8.814;2023-06-14T01:50:47;7.65;;;2.20;;
66270;SDS011;53063;39.614;8.814;2023-06-14T01:53:14;5.20;;;2.30;;
66270;SDS011;53063;39.614;8.814;2023-06-14T01:55:41;6.63;;;2.22;;
66270;SDS011;53063;39.614;8.814;2023-06-14T01:58:09;8.50;;;1.92;;
66270;SDS011;53063;39.614;8.814;2023-06-14T02:00:36;5.80;;;2.30;;
66270;SDS011;53063;39.614;8.814;2023-06-14T02:03:02;3.53;;;2.17;;
66270;SDS011;53063;39.614;8.814;2023-06-14T02:05:31;5.57;;;2.15;;
66270;SDS011;53063;39.614;8.814;2023-06-14T02:07:57;6.25;;;3.15;;
66270;SDS011;53063;39.614;8.814;2023-06-14T02:10:23;9.60;;;2.22;;
66270;SDS011;53063;39.614;8.814;2023-06-14T02:12:49;4.70;;;2.00;;
66270;SDS011;53063;39.614;8.814;2023-06-14T02:15:15;8.45;;;2.72;;
66270;SDS011;53063;39.614;8.814;2023-06-14T02:17:45;9.00;;;2.20;;
66270;SDS011;53063;39.614;8.814;2023-06-14T02:20:16;5.30;;;2.15;;
66270;SDS011;53063;39.614;8.814;2023-06-14T02:22:42;8.40;;;2.30;;
66270;SDS011;53063;39.614;8.814;2023-06-14T02:25:08;6.68;;;2.25;;
66270;SDS011;53063;39.614;8.814;2023-06-14T02:27:34;6.30;;;2.25;;
66270;SDS011;53063;39.614;8.814;2023-06-14T02:30:02;4.90;;;2.22;;
66270;SDS011;53063;39.614;8.814;2023-06-14T02:32:31;6.57;;;2.53;;
66270;SDS011;53063;39.614;8.814;2023-06-14T02:34:59;7.95;;;2.53;;
66270;SDS011;53063;39.614;8.814;2023-06-14T02:37:25;9.50;;;2.40;;
66270;SDS011;53063;39.614;8.814;2023-06-14T02:39:52;6.43;;;2.53;;
66270;SDS011;53063;39.614;8.814;2023-06-14T02:42:18;7.97;;;2.35;;
66270;SDS011;53063;39.614;8.814;2023-06-14T02:44:44;8.13;;;2.65;;
66270;SDS011;53063;39.614;8.814;2023-06-14T02:47:11;6.22;;;2.28;;
66270;SDS011;53063;39.614;8.814;2023-06-14T02:49:37;6.30;;;2.42;;
66270;SDS011;53063;39.614;8.814;2023-06-14T02:52:03;5.80;;;2.50;;
66270;SDS011;53063;39.614;8.814;2023-06-14T02:54:30;8.85;;;3.00;;
66270;SDS011;53063;39.614;8.814;2023-06-14T02:56:58;8.80;;;2.63;;
66270;SDS011;53063;39.614;8.814;2023-06-14T02:59:23;9.32;;;2.70;;
66270;SDS011;53063;39.614;8.814;2023-06-14T03:01:52;4.72;;;2.25;;
66270;SDS011;53063;39.614;8.814;2023-06-14T03:04:19;8.40;;;2.83;;
66270;SDS011;53063;39.614;8.814;2023-06-14T03:06:46;7.30;;;2.45;;
66270;SDS011;53063;39.614;8.814;2023-06-14T03:09:17;8.90;;;2.78;;
66270;SDS011;53063;39.614;8.814;2023-06-14T03:11:45;13.73;;;2.92;;
66270;SDS011;53063;39.614;8.814;2023-06-14T03:14:11;9.15;;;3.15;;
66270;SDS011;53063;39.614;8.814;2023-06-14T03:16:40;9.05;;;2.85;;
66270;SDS011;53063;39.614;8.814;2023-06-14T03:19:09;8.95;;;2.97;;
66270;SDS011;53063;39.614;8.814;2023-06-14T03:21:36;6.63;;;2.63;;
66270;SDS011;53063;39.614;8.814;2023-06-14T03:24:03;6.13;;;2.42;;
66270;SDS011;53063;39.614;8.814;2023-06-14T03:26:30;7.60;;;2.88;;
66270;SDS011;53063;39.614;8.814;2023-06-14T03:28:58;5.95;;;2.20;;
66270;SDS011;53063;39.614;8.814;2023-06-14T03:31:24;7.72;;;2.40;;
66270;SDS011;53063;39.614;8.814;2023-06-14T03:33:51;14.02;;;3.38;;
66270;SDS011;53063;39.614;8.814;2023-06-14T03:36:19;8.32;;;3.42;;
66270;SDS011;53063;39.614;8.814;2023-06-14T03:38:44;7.88;;;2.80;;
66270;SDS011;53063;39.614;8.814;2023-06-14T03:41:12;9.80;;;2.50;;
66270;SDS011;53063;39.614;8.814;2023-06-14T03:43:38;6.72;;;2.58;;
66270;SDS011;53063;39.614;8.814;2023-06-14T03:46:04;8.02;;;2.80;;
66270;SDS011;53063;39.614;8.814;2023-06-14T03:48:32;10.23;;;2.85;;
66270;SDS011;53063;39.614;8.814;2023-06-14T03:50:58;7.85;;;2.92;;
66270;SDS011;53063;39.614;8.814;2023-06-14T03:53:26;9.93;;;3.83;;
66270;SDS011;53063;39.614;8.814;2023-06-14T03:55:54;7.07;;;2.70;;
66270;SDS011;53063;39.614;8.814;2023-06-14T03:58:22;7.85;;;3.15;;
66270;SDS011;53063;39.614;8.814;2023-06-14T04:00:49;9.10;;;2.70;;
66270;SDS011;53063;39.614;8.814;2023-06-14T04:03:15;8.05;;;3.00;;
66270;SDS011;53063;39.614;8.814;2023-06-14T04:05:41;6.72;;;2.55;;
66270;SDS011;53063;39.614;8.814;2023-06-14T04:08:08;5.90;;;2.72;;
66270;SDS011;53063;39.614;8.814;2023-06-14T04:10:35;7.65;;;2.38;;
66270;SDS011;53063;39.614;8.814;2023-06-14T04:13:02;12.48;;;2.65;;
66270;SDS011;53063;39.614;8.814;2023-06-14T04:15:28;5.05;;;2.08;;
66270;SDS011;53063;39.614;8.814;2023-06-14T04:17:55;9.73;;;2.97;;
66270;SDS011;53063;39.614;8.814;2023-06-14T04:20:23;9.90;;;2.70;;
66270;SDS011;53063;39.614;8.814;2023-06-14T04:22:52;6.50;;;3.13;;
66270;SDS011;53063;39.614;8.814;2023-06-14T04:25:19;8.88;;;2.65;;
66270;SDS011;53063;39.614;8.814;2023-06-14T04:27:46;10.02;;;3.00;;
66270;SDS011;53063;39.614;8.814;2023-06-14T04:30:13;9.75;;;2.55;;
66270;SDS011;53063;39.614;8.814;2023-06-14T04:32:47;5.18;;;2.60;;
66270;SDS011;53063;39.614;8.814;2023-06-14T04:35:15;7.57;;;2.13;;
66270;SDS011;53063;39.614;8.814;2023-06-14T04:37:43;6.05;;;2.60;;
66270;SDS011;53063;39.614;8.814;2023-06-14T04:40:11;8.85;;;2.28;;
66270;SDS011;53063;39.614;8.814;2023-06-14T04:42:37;10.68;;;2.63;;
66270;SDS011;53063;39.614;8.814;2023-06-14T04:45:06;7.25;;;2.70;;
66270;SDS011;53063;39.614;8.814;2023-06-14T04:47:35;10.10;;;2.40;;
66270;SDS011;53063;39.614;8.814;2023-06-14T04:50:05;8.45;;;2.50;;
66270;SDS011;53063;39.614;8.814;2023-06-14T04:52:31;12.05;;;3.53;;
66270;SDS011;53063;39.614;8.814;2023-06-14T04:54:58;13.70;;;3.83;;
66270;SDS011;53063;39.614;8.814;2023-06-14T04:57:25;27.77;;;11.88;;
66270;SDS011;53063;39.614;8.814;2023-06-14T04:59:55;19.77;;;7.65;;
66270;SDS011;53063;39.614;8.814;2023-06-14T05:02:24;12.60;;;4.50;;
66270;SDS011;53063;39.614;8.814;2023-06-14T05:04:53;10.05;;;4.82;;
66270;SDS011;53063;39.614;8.814;2023-06-14T05:07:20;13.63;;;3.42;;
66270;SDS011;53063;39.614;8.814;2023-06-14T05:09:49;15.25;;;4.38;;
66270;SDS011;53063;39.614;8.814;2023-06-14T05:12:16;11.55;;;3.33;;
66270;SDS011;53063;39.614;8.814;2023-06-14T05:14:44;9.93;;;2.90;;
66270;SDS011;53063;39.614;8.814;2023-06-14T05:17:10;15.35;;;3.30;;
66270;SDS011;53063;39.614;8.814;2023-06-14T05:19:36;12.20;;;3.38;;
66270;SDS011;53063;39.614;8.814;2023-06-14T05:22:02;9.35;;;3.17;;
66270;SDS011;53063;39.614;8.814;2023-06-14T05:24:28;12.52;;;3.40;;
66270;SDS011;53063;39.614;8.814;2023-06-14T05:26:56;15.85;;;3.70;;
66270;SDS011;53063;39.614;8.814;2023-06-14T05:29:22;21.08;;;3.60;;
66270;SDS011;53063;39.614;8.814;2023-06-14T05:31:47;13.55;;;3.45;;
66270;SDS011;53063;39.614;8.814;2023-06-14T05:34:13;10.70;;;3.42;;
66270;SDS011;53063;39.614;8.814;2023-06-14T05:36:39;12.75;;;3.50;;
66270;SDS011;53063;39.614;8.814;2023-06-14T05:39:06;11.45;;;3.50;;
66270;SDS011;53063;39.614;8.814;2023-06-14T05:41:38;12.82;;;3.50;;
66270;SDS011;53063;39.614;8.814;2023-06-14T05:44:04;15.45;;;3.45;;
66270;SDS011;53063;39.614;8.814;2023-06-14T05:46:30;13.93;;;3.65;;
66270;SDS011;53063;39.614;8.814;2023-06-14T05:48:56;11.38;;;3.15;;
66270;SDS011;53063;39.614;8.814;2023-06-14T05:51:22;11.65;;;3.35;;
66270;SDS011;53063;39.614;8.814;2023-06-14T05:53:50;8.57;;;3.38;;
66270;SDS011;53063;39.614;8.814;2023-06-14T05:56:16;10.48;;;3.83;;
66270;SDS011;53063;39.614;8.814;2023-06-14T05:58:43;13.00;;;3.10;;
66270;SDS011;53063;39.614;8.814;2023-06-14T06:01:10;11.20;;;4.03;;
66270;SDS011;53063;39.614;8.814;2023-06-14T06:03:36;12.52;;;3.58;;
66270;SDS011;53063;39.614;8.814;2023-06-14T06:06:02;11.45;;;4.38;;
66270;SDS011;53063;39.614;8.814;2023-06-14T06:08:28;16.08;;;3.90;;
66270;SDS011;53063;39.614;8.814;2023-06-14T06:10:55;9.40;;;3.60;;
66270;SDS011;53063;39.614;8.814;2023-06-14T06:13:21;14.40;;;3.70;;
66270;SDS011;53063;39.614;8.814;2023-06-14T06:15:48;16.88;;;4.15;;
66270;SDS011;53063;39.614;8.814;2023-06-14T06:18:14;13.50;;;4.05;;
66270;SDS011;53063;39.614;8.814;2023-06-14T06:20:40;15.43;;;4.53;;
66270;SDS011;53063;39.614;8.814;2023-06-14T06:23:06;15.70;;;4.13;;
66270;SDS011;53063;39.614;8.814;2023-06-14T06:25:33;14.18;;;3.70;;
66270;SDS011;53063;39.614;8.814;2023-06-14T06:27:59;21.63;;;4.65;;
66270;SDS011;53063;39.614;8.814;2023-06-14T06:30:25;11.52;;;4.03;;
66270;SDS011;53063;39.614;8.814;2023-06-14T06:32:51;16.52;;;3.92;;
66270;SDS011;53063;39.614;8.814;2023-06-14T06:35:18;14.52;;;3.95;;
66270;SDS011;53063;39.614;8.814;2023-06-14T06:37:44;10.52;;;4.47;;
66270;SDS011;53063;39.614;8.814;2023-06-14T06:40:10;11.57;;;4.30;;
66270;SDS011;53063;39.614;8.814;2023-06-14T06:42:36;13.88;;;3.92;;
66270;SDS011;53063;39.614;8.814;2023-06-14T06:45:04;18.25;;;7.10;;
66270;SDS011;53063;39.614;8.814;2023-06-14T06:47:31;14.18;;;4.82;;
66270;SDS011;53063;39.614;8.814;2023-06-14T06:49:57;16.33;;;4.20;;
66270;SDS011;53063;39.614;8.814;2023-06-14T06:52:22;21.10;;;4.85;;
66270;SDS011;53063;39.614;8.814;2023-06-14T06:54:48;14.45;;;5.18;;
66270;SDS011;53063;39.614;8.814;2023-06-14T06:57:15;14.27;;;5.10;;
66270;SDS011;53063;39.614;8.814;2023-06-14T06:59:41;12.50;;;4.32;;
66270;SDS011;53063;39.614;8.814;2023-06-14T07:02:07;10.38;;;4.28;;
66270;SDS011;53063;39.614;8.814;2023-06-14T07:04:33;14.48;;;5.35;;
66270;SDS011;53063;39.614;8.814;2023-06-14T07:06:59;19.58;;;4.18;;
66270;SDS011;53063;39.614;8.814;2023-06-14T07:09:25;12.80;;;4.35;;
66270;SDS011;53063;39.614;8.814;2023-06-14T07:11:51;11.57;;;4.72;;
66270;SDS011;53063;39.614;8.814;2023-06-14T07:14:17;20.65;;;5.72;;
66270;SDS011;53063;39.614;8.814;2023-06-14T07:16:43;9.27;;;4.25;;
66270;SDS011;53063;39.614;8.814;2023-06-14T07:19:09;11.90;;;4.40;;
66270;SDS011;53063;39.614;8.814;2023-06-14T07:21:35;14.15;;;5.78;;
66270;SDS011;53063;39.614;8.814;2023-06-14T07:24:05;10.63;;;4.65;;
66270;SDS011;53063;39.614;8.814;2023-06-14T07:26:31;12.98;;;4.55;;
66270;SDS011;53063;39.614;8.814;2023-06-14T07:28:58;23.15;;;5.72;;
66270;SDS011;53063;39.614;8.814;2023-06-14T07:31:23;23.58;;;6.40;;
66270;SDS011;53063;39.614;8.814;2023-06-14T07:33:49;16.50;;;6.32;;
66270;SDS011;53063;39.614;8.814;2023-06-14T07:36:15;15.13;;;5.07;;
66270;SDS011;53063;39.614;8.814;2023-06-14T07:38:43;11.80;;;4.25;;
66270;SDS011;53063;39.614;8.814;2023-06-14T07:41:09;8.95;;;3.97;;
66270;SDS011;53063;39.614;8.814;2023-06-14T07:43:35;7.35;;;3.33;;
66270;SDS011;53063;39.614;8.814;2023-06-14T07:46:01;11.57;;;4.00;;
66270;SDS011;53063;39.614;8.814;2023-06-14T07:48:27;10.43;;;3.60;;
66270;SDS011;53063;39.614;8.814;2023-06-14T07:50:53;12.27;;;3.70;;
66270;SDS011;53063;39.614;8.814;2023-06-14T07:53:20;10.45;;;3.50;;
66270;SDS011;53063;39.614;8.814;2023-06-14T07:55:46;10.60;;;3.80;;
66270;SDS011;53063;39.614;8.814;2023-06-14T07:58:13;6.65;;;3.13;;
66270;SDS011;53063;39.614;8.814;2023-06-14T08:00:39;11.40;;;3.70;;
66270;SDS011;53063;39.614;8.814;2023-06-14T08:03:05;6.38;;;3.10;;
66270;SDS011;53063;39.614;8.814;2023-06-14T08:05:31;9.35;;;3.65;;
66270;SDS011;53063;39.614;8.814;2023-06-14T08:07:57;10.07;;;3.45;;
66270;SDS011;53063;39.614;8.814;2023-06-14T08:10:23;6.78;;;3.08;;
66270;SDS011;53063;39.614;8.814;2023-06-14T08:12:49;7.80;;;3.20;;
66270;SDS011;53063;39.614;8.814;2023-06-14T08:15:15;5.00;;;3.00;;
66270;SDS011;53063;39.614;8.814;2023-06-14T08:17:42;7.50;;;3.45;;
66270;SDS011;53063;39.614;8.814;2023-06-14T08:20:09;8.73;;;2.75;;
66270;SDS011;53063;39.614;8.814;2023-06-14T08:22:36;8.32;;;3.20;;
66270;SDS011;53063;39.614;8.814;2023-06-14T08:25:02;8.23;;;3.33;;
66270;SDS011;53063;39.614;8.814;2023-06-14T08:27:29;8.73;;;3.35;;
66270;SDS011;53063;39.614;8.814;2023-06-14T08:29:56;9.07;;;3.90;;
66270;SDS011;53063;39.614;8.814;2023-06-14T08:32:22;11.90;;;4.00;;
66270;SDS011;53063;39.614;8.814;2023-06-14T08:34:48;10.23;;;3.72;;
66270;SDS011;53063;39.614;8.814;2023-06-14T08:37:14;8.13;;;3.92;;
66270;SDS011;53063;39.614;8.814;2023-06-14T08:39:40;6.70;;;3.00;;
66270;SDS011;53063;39.614;8.814;2023-06-14T08:42:06;6.47;;;3.13;;
66270;SDS011;53063;39.614;8.814;2023-06-14T08:44:34;6.45;;;3.10;;
66270;SDS011;53063;39.614;8.814;2023-06-14T08:47:00;9.05;;;3.13;;
66270;SDS011;53063;39.614;8.814;2023-06-14T08:49:28;6.88;;;3.10;;
66270;SDS011;53063;39.614;8.814;2023-06-14T08:51:59;7.10;;;4.20;;
66270;SDS011;53063;39.614;8.814;2023-06-14T08:54:29;8.68;;;2.78;;
66270;SDS011;53063;39.614;8.814;2023-06-14T08:56:56;5.45;;;2.88;;
66270;SDS011;53063;39.614;8.814;2023-06-14T08:59:25;6.13;;;2.65;;
66270;SDS011;53063;39.614;8.814;2023-06-14T09:01:52;9.77;;;3.22;;
66270;SDS011;53063;39.614;8.814;2023-06-14T09:04:22;7.18;;;2.47;;
66270;SDS011;53063;39.614;8.814;2023-06-14T09:06:55;5.97;;;2.40;;
66270;SDS011;53063;39.614;8.814;2023-06-14T09:09:21;6.30;;;2.65;;
66270;SDS011;53063;39.614;8.814;2023-06-14T09:11:54;5.25;;;2.50;;
66270;SDS011;53063;39.614;8.814;2023-06-14T09:14:21;5.75;;;2.35;;
66270;SDS011;53063;39.614;8.814;2023-06-14T09:16:51;8.05;;;2.20;;
66270;SDS011;53063;39.614;8.814;2023-06-14T09:19:21;6.53;;;2.80;;
66270;SDS011;53063;39.614;8.814;2023-06-14T09:24:18;5.80;;;2.20;;
66270;SDS011;53063;39.614;8.814;2023-06-14T09:26:47;4.88;;;2.33;;
66270;SDS011;53063;39.614;8.814;2023-06-14T09:29:16;8.50;;;2.47;;
66270;SDS011;53063;39.614;8.814;2023-06-14T09:31:42;10.73;;;2.90;;
66270;SDS011;53063;39.614;8.814;2023-06-14T09:34:10;7.22;;;2.47;;
66270;SDS011;53063;39.614;8.814;2023-06-14T09:36:36;7.25;;;2.65;;
66270;SDS011;53063;39.614;8.814;2023-06-14T09:39:06;6.95;;;2.85;;
66270;SDS011;53063;39.614;8.814;2023-06-14T09:41:34;7.50;;;3.20;;
66270;SDS011;53063;39.614;8.814;2023-06-14T09:44:06;6.00;;;2.70;;
66270;SDS011;53063;39.614;8.814;2023-06-14T09:46:34;8.57;;;2.50;;
66270;SDS011;53063;39.614;8.814;2023-06-14T09:49:01;9.32;;;3.03;;
66270;SDS011;53063;39.614;8.814;2023-06-14T09:51:28;6.93;;;2.40;;
66270;SDS011;53063;39.614;8.814;2023-06-14T09:54:00;8.50;;;2.80;;
66270;SDS011;53063;39.614;8.814;2023-06-14T09:56:36;7.07;;;2.92;;
66270;SDS011;53063;39.614;8.814;2023-06-14T09:59:06;6.72;;;2.92;;
66270;SDS011;53063;39.614;8.814;2023-06-14T10:01:35;11.93;;;2.58;;
66270;SDS011;53063;39.614;8.814;2023-06-14T10:04:07;9.52;;;3.35;;
66270;SDS011;53063;39.614;8.814;2023-06-14T10:06:36;8.43;;;3.08;;
66270;SDS011;53063;39.614;8.814;2023-06-14T10:09:04;5.63;;;2.67;;
66270;SDS011;53063;39.614;8.814;2023-06-14T10:11:33;8.48;;;2.97;;
66270;SDS011;53063;39.614;8.814;2023-06-14T10:14:01;6.57;;;2.53;;
66270;SDS011;53063;39.614;8.814;2023-06-14T10:16:31;6.57;;;2.55;;
66270;SDS011;53063;39.614;8.814;2023-06-14T10:22:02;4.43;;;1.92;;
66270;SDS011;53063;39.614;8.814;2023-06-14T10:24:34;7.00;;;2.22;;
66270;SDS011;53063;39.614;8.814;2023-06-14T10:27:07;7.13;;;2.80;;
66270;SDS011;53063;39.614;8.814;2023-06-14T10:32:26;6.47;;;3.33;;
66270;SDS011;53063;39.614;8.814;2023-06-14T10:34:59;5.50;;;1.90;;
66270;SDS011;53063;39.614;8.814;2023-06-14T10:37:27;7.20;;;2.03;;
66270;SDS011;53063;39.614;8.814;2023-06-14T10:39:53;6.35;;;2.13;;
66270;SDS011;53063;39.614;8.814;2023-06-14T10:42:19;4.72;;;2.47;;
66270;SDS011;53063;39.614;8.814;2023-06-14T10:44:51;12.07;;;2.10;;
66270;SDS011;53063;39.614;8.814;2023-06-14T10:47:21;5.50;;;2.22;;
66270;SDS011;53063;39.614;8.814;2023-06-14T10:50:12;4.25;;;2.90;;
66270;SDS011;53063;39.614;8.814;2023-06-14T10:52:40;6.50;;;2.10;;
66270;SDS011;53063;39.614;8.814;2023-06-14T10:57:45;5.07;;;2.03;;
66270;SDS011;53063;39.614;8.814;2023-06-14T11:00:16;3.25;;;1.63;;
66270;SDS011;53063;39.614;8.814;2023-06-14T11:05:58;4.20;;;1.60;;
66270;SDS011;53063;39.614;8.814;2023-06-14T11:11:06;3.85;;;1.92;;
66270;SDS011;53063;39.614;8.814;2023-06-14T11:13:34;6.05;;;1.70;;
66270;SDS011;53063;39.614;8.814;2023-06-14T11:16:03;4.78;;;1.60;;
66270;SDS011;53063;39.614;8.814;2023-06-14T11:18:39;4.57;;;1.65;;
66270;SDS011;53063;39.614;8.814;2023-06-14T11:21:06;4.18;;;1.42;;
66270;SDS011;53063;39.614;8.814;2023-06-14T11:23:32;4.18;;;1.55;;
66270;SDS011;53063;39.614;8.814;2023-06-14T11:25:57;4.28;;;1.38;;
66270;SDS011;53063;39.614;8.814;2023-06-14T11:28:23;2.70;;;1.42;;
66270;SDS011;53063;39.614;8.814;2023-06-14T11:31:03;2.85;;;1.27;;
66270;SDS011;53063;39.614;8.814;2023-06-14T11:33:29;2.25;;;1.33;;
66270;SDS011;53063;39.614;8.814;2023-06-14T11:35:55;3.67;;;1.70;;
66270;SDS011;53063;39.614;8.814;2023-06-14T11:38:21;2.78;;;1.30;;
66270;SDS011;53063;39.614;8.814;2023-06-14T11:40:47;3.08;;;1.35;;
66270;SDS011;53063;39.614;8.814;2023-06-14T11:43:13;4.40;;;1.85;;
66270;SDS011;53063;39.614;8.814;2023-06-14T11:45:39;4.20;;;1.23;;
66270;SDS011;53063;39.614;8.814;2023-06-14T11:48:06;2.58;;;1.30;;
66270;SDS011;53063;39.614;8.814;2023-06-14T11:50:32;4.47;;;1.60;;
66270;SDS011;53063;39.614;8.814;2023-06-14T11:53:02;2.80;;;1.38;;
66270;SDS011;53063;39.614;8.814;2023-06-14T11:55:35;5.75;;;1.73;;
66270;SDS011;53063;39.614;8.814;2023-06-14T11:58:05;4.13;;;1.38;;
66270;SDS011;53063;39.614;8.814;2023-06-14T12:00:31;2.60;;;1.25;;
66270;SDS011;53063;39.614;8.814;2023-06-14T12:02:57;3.75;;;1.52;;
66270;SDS011;53063;39.614;8.814;2023-06-14T12:05:24;4.72;;;1.42;;
66270;SDS011;53063;39.614;8.814;2023-06-14T12:08:01;2.95;;;1.30;;
66270;SDS011;53063;39.614;8.814;2023-06-14T12:10:28;2.38;;;1.05;;
66270;SDS011;53063;39.614;8.814;2023-06-14T12:12:58;2.90;;;1.92;;
66270;SDS011;53063;39.614;8.814;2023-06-14T12:15:27;3.65;;;1.25;;
66270;SDS011;53063;39.614;8.814;2023-06-14T12:17:54;3.22;;;1.48;;
66270;SDS011;53063;39.614;8.814;2023-06-14T12:20:21;2.80;;;1.38;;
66270;SDS011;53063;39.614;8.814;2023-06-14T12:22:53;1.92;;;1.08;;
66270;SDS011;53063;39.614;8.814;2023-06-14T12:25:34;3.80;;;1.35;;
66270;SDS011;53063;39.614;8.814;2023-06-14T12:28:08;8.00;;;1.63;;
66270;SDS011;53063;39.614;8.814;2023-06-14T12:30:37;3.20;;;1.30;;
66270;SDS011;53063;39.614;8.814;2023-06-14T12:33:03;4.38;;;1.60;;
66270;SDS011;53063;39.614;8.814;2023-06-14T12:35:30;6.88;;;2.00;;
66270;SDS011;53063;39.614;8.814;2023-06-14T12:37:56;5.32;;;2.40;;
66270;SDS011;53063;39.614;8.814;2023-06-14T12:40:22;5.35;;;2.10;;
66270;SDS011;53063;39.614;8.814;2023-06-14T12:42:48;6.22;;;2.30;;
66270;SDS011;53063;39.614;8.814;2023-06-14T12:45:14;4.93;;;2.10;;
66270;SDS011;53063;39.614;8.814;2023-06-14T12:47:40;3.80;;;2.30;;
66270;SDS011;53063;39.614;8.814;2023-06-14T12:50:07;5.45;;;2.25;;
66270;SDS011;53063;39.614;8.814;2023-06-14T12:52:33;5.47;;;2.20;;
66270;SDS011;53063;39.614;8.814;2023-06-14T12:55:03;4.90;;;2.08;;
66270;SDS011;53063;39.614;8.814;2023-06-14T12:57:31;5.75;;;2.22;;
66270;SDS011;53063;39.614;8.814;2023-06-14T12:59:57;3.78;;;1.95;;
66270;SDS011;53063;39.614;8.814;2023-06-14T13:02:24;7.65;;;2.38;;
66270;SDS011;53063;39.614;8.814;2023-06-14T13:04:51;4.80;;;2.38;;
66270;SDS011;53063;39.614;8.814;2023-06-14T13:07:17;4.47;;;2.38;;
66270;SDS011;53063;39.614;8.814;2023-06-14T13:09:43;8.75;;;2.60;;
66270;SDS011;53063;39.614;8.814;2023-06-14T13:12:12;4.60;;;2.70;;
66270;SDS011;53063;39.614;8.814;2023-06-14T13:14:38;4.85;;;2.45;;
66270;SDS011;53063;39.614;8.814;2023-06-14T13:17:08;4.72;;;2.00;;
66270;SDS011;53063;39.614;8.814;2023-06-14T13:19:35;4.47;;;2.50;;
66270;SDS011;53063;39.614;8.814;2023-06-14T13:22:01;5.97;;;2.33;;
66270;SDS011;53063;39.614;8.814;2023-06-14T13:24:27;7.07;;;2.17;;
66270;SDS011;53063;39.614;8.814;2023-06-14T13:26:55;3.25;;;2.20;;
66270;SDS011;53063;39.614;8.814;2023-06-14T13:29:22;3.03;;;2.00;;
66270;SDS011;53063;39.614;8.814;2023-06-14T13:31:49;2.67;;;1.42;;
66270;SDS011;53063;39.614;8.814;2023-06-14T13:34:15;3.35;;;1.55;;
66270;SDS011;53063;39.614;8.814;2023-06-14T13:36:41;3.33;;;1.55;;
66270;SDS011;53063;39.614;8.814;2023-06-14T13:39:07;2.45;;;1.60;;
66270;SDS011;53063;39.614;8.814;2023-06-14T13:41:33;2.75;;;1.50;;
66270;SDS011;53063;39.614;8.814;2023-06-14T13:44:00;2.65;;;1.38;;
66270;SDS011;53063;39.614;8.814;2023-06-14T13:46:29;4.25;;;1.45;;
66270;SDS011;53063;39.614;8.814;2023-06-14T13:48:55;4.75;;;1.65;;
66270;SDS011;53063;39.614;8.814;2023-06-14T13:51:22;2.53;;;1.52;;
66270;SDS011;53063;39.614;8.814;2023-06-14T13:53:48;4.35;;;1.30;;
66270;SDS011;53063;39.614;8.814;2023-06-14T13:56:15;3.60;;;1.40;;
66270;SDS011;53063;39.614;8.814;2023-06-14T13:58:41;3.83;;;1.27;;
66270;SDS011;53063;39.614;8.814;2023-06-14T14:01:07;2.95;;;1.80;;
66270;SDS011;53063;39.614;8.814;2023-06-14T14:03:34;2.95;;;1.40;;
66270;SDS011;53063;39.614;8.814;2023-06-14T14:06:01;2.75;;;2.00;;
66270;SDS011;53063;39.614;8.814;2023-06-14T14:08:27;4.03;;;1.70;;
66270;SDS011;53063;39.614;8.814;2023-06-14T14:10:53;2.70;;;1.13;;
66270;SDS011;53063;39.614;8.814;2023-06-14T14:13:19;2.90;;;1.40;;
66270;SDS011;53063;39.614;8.814;2023-06-14T14:15:46;2.08;;;1.15;;
66270;SDS011;53063;39.614;8.814;2023-06-14T14:18:12;2.45;;;1.20;;
66270;SDS011;53063;39.614;8.814;2023-06-14T14:20:38;4.10;;;1.40;;
66270;SDS011;53063;39.614;8.814;2023-06-14T14:23:03;2.45;;;1.50;;
66270;SDS011;53063;39.614;8.814;2023-06-14T14:25:29;2.85;;;1.23;;
66270;SDS011;53063;39.614;8.814;2023-06-14T14:27:55;3.10;;;1.50;;
66270;SDS011;53063;39.614;8.814;2023-06-14T14:30:22;2.60;;;1.20;;
66270;SDS011;53063;39.614;8.814;2023-06-14T14:32:49;2.55;;;1.30;;
66270;SDS011;53063;39.614;8.814;2023-06-14T14:35:18;4.28;;;1.50;;
66270;SDS011;53063;39.614;8.814;2023-06-14T14:37:45;4.65;;;1.42;;
66270;SDS011;53063;39.614;8.814;2023-06-14T14:40:11;5.13;;;1.42;;
66270;SDS011;53063;39.614;8.814;2023-06-14T14:42:37;3.40;;;1.55;;
66270;SDS011;53063;39.614;8.814;2023-06-14T14:45:03;4.85;;;2.40;;
66270;SDS011;53063;39.614;8.814;2023-06-14T14:47:30;2.28;;;1.25;;
66270;SDS011;53063;39.614;8.814;2023-06-14T14:49:55;2.30;;;1.40;;
66270;SDS011;53063;39.614;8.814;2023-06-14T14:52:21;2.67;;;1.20;;
66270;SDS011;53063;39.614;8.814;2023-06-14T14:54:47;2.53;;;1.30;;
66270;SDS011;53063;39.614;8.814;2023-06-14T14:57:13;3.80;;;1.20;;
66270;SDS011;53063;39.614;8.814;2023-06-14T14:59:39;5.50;;;1.50;;
66270;SDS011;53063;39.614;8.814;2023-06-14T15:02:05;2.28;;;1.30;;
66270;SDS011;53063;39.614;8.814;2023-06-14T15:04:31;3.67;;;1.25;;
66270;SDS011;53063;39.614;8.814;2023-06-14T15:06:57;3.92;;;1.50;;